Tiempo atmosférico en la estación meteorológica de Córdoba Aeropuerto, Córdoba (90 m.)



Fecha
DESCASC
Temp. máxima en grados centígrados (hora)
DESCASC
Temp. mínima en grados centígrados (hora)
DESCASC
Temp. media en grados centígrados
DESCASC
Racha de viento máxima en m/sg (hora)
DESCASC
Velocidad máxima media en intervalos de 10 minutos(hora)
DESCASC
Precipitaciones diarias en mm
DESCASC
Precipitaciones de 00:00 a 06:00 en mm
DESCASC
Precipitaciones de 06:00 a 12:00 en mm
DESCASC
Precipitaciones de 12:00 a 18:00 en mm
DESCASC
Precipitaciones de 18:00 a 24:00 en mm
DESCASC
16-04-2019 27.6 (18:40) 9.8 (06:50) 18.7 8.89 (22:30) 5.83 (22:50) 0 0 0 0 0
15-04-2019 27.1 (16:10) 13.7 (06:50) 20.4 13.33 (19:50) 9.72 (20:00) 0 0 0 0 0
14-04-2019 27.5 (17:00) 8.7 (00:00) 18.1 5.83 (14:30) 3.61 (17:20) 0 0 0 0 0
13-04-2019 25.3 (17:30) 5.8 (00:00) 15.5 -- (--) -- (--) 0 0 0 0 0
12-04-2019 23.6 (17:40) 5.7 (00:00) 14.7 6.11 (12:00) 3.89 (12:30) 0 0 0 0 0
11-04-2019 22.2 (16:40) 5.2 (00:00) 13.7 6.11 (01:40) 3.33 (12:30) 0 0 0 0 0
10-04-2019 20.4 (17:40) 6 (00:00) 13.2 11.67 (19:30) 6.39 (19:20) 0 0 0 0 0
09-04-2019 18.2 (16:10) 8.7 (00:00) 13.5 11.39 (19:30) 7.5 (19:30) 0.9 0 0 0.8 0.1
08-04-2019 17.5 (15:20) 12.8 (00:00) 15.2 11.67 (13:00) 8.06 (14:40) 15.5 5.1 4 4.6 1.8
07-04-2019 16.2 (13:10) 8.3 (00:00) 12.3 11.67 (15:50) 8.33 (15:50) 3.5 0 0 0.2 3.3
06-04-2019 15.5 (17:00) 6.5 (00:00) 11 12.5 (17:50) 7.5 (17:10) 1.7 0 0.4 0.7 0.6
05-04-2019 16 (16:10) 8.5 (00:00) 12.3 13.33 (16:30) 7.78 (19:00) 11.2 0 5.9 5.3 0
04-04-2019 20.5 (17:40) 4.6 (00:00) 12.5 10.83 (19:40) 6.94 (19:40) 0 0 0 0 0
03-04-2019 23.9 (16:10) 7.5 (00:00) 15.7 12.78 (18:00) 8.33 (17:30) 0 0 0 0 0
02-04-2019 23 (18:30) 11.4 (00:00) 17.2 7.22 (20:10) 4.17 (20:00) 0 0 0 0 0
01-04-2019 21.1 (13:30) 11.5 (00:00) 16.3 -- (--) -- (--) 2.2 1 0 0.3 0.9
31-03-2019 -- (--) -- (--) -- -- (--) -- (--) -- 0 2.4 -- 0
30-03-2019 25.1 (16:20) 6.8 (00:00) 16 10.28 (19:40) 6.39 (18:40) 0 0 0 0 0
29-03-2019 24.2 (16:30) 2.8 (00:00) 13.5 7.22 (10:50) 5.28 (18:30) 0 0 0 0 0
28-03-2019 23.7 (16:50) 5.4 (00:00) 14.6 -- (--) -- (--) -- -- 0 0 0
27-03-2019 23.1 (16:50) 6.1 (00:00) 14.6 12.5 (12:20) 8.61 (13:10) 0 0 0 0 0
26-03-2019 28.2 (16:30) 7.3 (00:00) 17.8 -- (--) -- (--) -- -- 0 0 0
25-03-2019 -- (--) -- (--) -- -- (--) -- (--) -- -- -- -- 0
24-03-2019 23.8 (15:10) 8 (00:00) 15.9 10.28 (12:50) -- (--) 0 0 0 0 0
23-03-2019 23.7 (15:50) 4.2 (00:00) 14 15 (17:20) 10.56 (18:10) 0 0 0 0 0
22-03-2019 22.3 (16:00) 2.6 (00:00) 12.4 8.89 (15:40) 5 (15:00) 0 0 0 0 0
21-03-2019 20.7 (16:30) 3.6 (00:00) 12.2 11.67 (13:20) 7.5 (13:30) 0 0 0 0 0
20-03-2019 21.2 (15:40) 2.7 (00:00) 12 8.33 (21:10) 4.44 (12:20) 0 0 0 0 0
19-03-2019 21.7 (15:50) 5 (00:00) 13.4 13.89 (15:20) 8.06 (18:00) 0 0 0 0 0

Gráficas

Temp. máximas Temp. mínimas Temp. medias Precipitaciones Rachas de viento máximas Velocidades máximas media en intervalos de 10 minutos

Datos horarios

Fecha y hora oficial Temperatura (ºC) Velocidad del viento (km/h) Dirección del viento Racha (km/h) Dirección de racha Precipitación (mm) Presión (hPa) Tendencia (hPa) Humedad (%)
2019-04-17 23:00:00 -- -- -- -- -- -- -- -- --
2019-04-17 22:00:00 -- -- -- -- -- -- -- -- --
2019-04-17 21:00:00 -- -- -- -- -- -- -- -- --
2019-04-17 20:00:00 -- -- -- -- -- -- -- -- --
2019-04-17 19:00:00 -- -- -- -- -- -- -- -- --
2019-04-17 18:00:00 -- -- -- -- -- -- -- -- --
2019-04-17 17:00:00 21.8 -- -- 33 Oeste 0 -- -- 48
2019-04-17 16:00:00 21.4 15 Oeste 37 Sur 0 998.8 -0.9 45
2019-04-17 15:00:00 22.1 18 Sudoeste 35 Oeste 0 998.9 -1 46
2019-04-17 14:00:00 23.6 19 Oeste 42 Sudoeste 0 999.2 -1.3 43
2019-04-17 13:00:00 23.1 14 Oeste 28 Sudoeste 0 999.7 -0.9 42
2019-04-17 12:00:00 21.4 8 Este 18 Este 0 999.9 -0.7 44
2019-04-17 11:00:00 18.1 6 Este 11 Este 0 1000.5 0.2 55
2019-04-17 10:00:00 14.5 10 Este 13 Este 0 1000.6 0.2 67
2019-04-17 09:00:00 12.2 6 Este 13 Este 0 1000.6 -0.4 74
2019-04-17 08:00:00 10.3 10 Este 13 Este 0 1000.3 -1.2 82
2019-04-17 07:00:00 10.5 5 Este 8 Este 0 1000.4 -1.6 83
2019-04-17 06:00:00 11 0 Calma 5 Sudeste 0 1001 -1.5 81
2019-04-17 05:00:00 12.5 3 Este 9 Oeste 0 1001.5 -1.7 75
2019-04-17 04:00:00 14.6 6 Oeste 15 Noroeste 0 1002 -1.3 63
2019-04-17 03:00:00 15 5 Noroeste 13 Sur 0 1002.5 -0.3 61
2019-04-17 02:00:00 17 6 Sur 22 Sudoeste 0 1003.2 1.2 46
2019-04-17 01:00:00 18.4 10 Sudoeste 30 Oeste 0 1003.3 1.6 32
2019-04-17 00:00:00 17.7 10 Oeste 28 Sur 0 1002.8 1.4 34
2019-04-16 23:00:00 20.2 21 Sur 32 Sur 0 1002 0.7 23
2019-04-16 22:00:00 20.7 18 Sur 26 Sur 0 1001.7 0.5 31
2019-04-16 21:00:00 22.5 11 Sur 13 Sur 0 1001.4 -0.5 52
2019-04-16 20:00:00 26.5 4 Oeste 9 Noroeste 0 1001.3 -1.4 39
2019-04-16 19:00:00 27.1 4 Oeste 11 Noroeste 0 1001.2 -2.6 30
2019-04-16 18:00:00 26.6 5 Oeste 11 Noroeste 0 1001.9 -3.1 29
2019-04-16 17:00:00 26.5 10 Este 21 Este 0 1002.7 -2.9 29
2019-04-16 16:00:00 25.6 10 Este 22 Este 0 1003.8 -3.4 30
2019-04-16 15:00:00 24.1 12 Nordeste 26 Este 0 1005 -2.9 32
2019-04-16 14:00:00 22.7 14 Nordeste 24 Nordeste 0 1005.6 -2.8 40
2019-04-16 13:00:00 20.6 12 Este 22 Este 0 1007.2 -1 58
2019-04-16 12:00:00 18.5 13 Este 21 Nordeste 0 1007.9 -0.1 67
2019-04-16 11:00:00 16.6 10 Este 18 Este 0 1008.4 0.5 73
2019-04-16 10:00:00 14 13 Nordeste 18 Nordeste 0 1008.2 0.5 85
2019-04-16 09:00:00 12.8 10 Este 17 Este 0 1008 0.5 94
2019-04-16 08:00:00 11.4 0 Calma 8 Sudeste 0 1007.9 -0.2 96
2019-04-16 07:00:00 10 5 Sur 8 Sudoeste 0 1007.7 -0.4 95
2019-04-16 06:00:00 10.1 2 Este 8 Sur 0 1007.5 -0.8 93
2019-04-16 05:00:00 11.2 4 Sudoeste 11 Sudoeste 0 1008.1 -0.1 94
2019-04-16 04:00:00 11.8 5 Sudoeste 11 Sur 0 1008.1 0.4 91
2019-04-16 03:00:00 12.9 5 Sudoeste 15 Oeste 0 1008.3 0.7 90
2019-04-16 02:00:00 13.6 9 Sudoeste 13 Sudoeste 0 1008.2 1.4 87
2019-04-16 01:00:00 14.7 9 Sudoeste 18 Oeste 0 1007.7 2.3 84
2019-04-16 00:00:00 16.2 11 Oeste 30 Sudoeste 0 1007.6 3.7 78
2019-04-15 23:00:00 17.8 18 Sudoeste 30 Sudoeste 0 1006.8 3.8 70
2019-04-15 22:00:00 18.9 17 Oeste 37 Oeste 0 1005.4 3.1 62
2019-04-15 21:00:00 20.5 26 Sudoeste 48 Sudoeste 0 1003.9 1.8 55
2019-04-15 20:00:00 23.1 35 Sudoeste 48 Sudoeste 0 1003 1.4 45
2019-04-15 19:00:00 25.6 27 Sudoeste 46 Oeste 0 1002.3 0.6 31
2019-04-15 18:00:00 26.3 27 Sudoeste 46 Oeste 0 1002.1 -0.3 29
2019-04-15 17:00:00 26 27 Sudoeste 45 Sudoeste 0 1001.6 -1 33
2019-04-15 16:00:00 27 25 Sudoeste 41 Oeste 0 1001.7 -1.3 22
2019-04-15 15:00:00 26.7 24 Sudoeste 42 Oeste 0 1002.4 -0.8 24
2019-04-15 14:00:00 25.1 20 Sudoeste 32 Oeste 0 1002.6 -0.8 34
2019-04-15 13:00:00 23.8 15 Oeste 28 Sudoeste 0 1003 0 45
2019-04-15 12:00:00 22.9 5 Oeste 13 Oeste 0 1003.2 0.5 50
2019-04-15 11:00:00 20 4 Este 11 Este 0 1003.4 1.7 63
2019-04-15 10:00:00 18.6 8 Sudeste 11 Sudeste 0 1003 1.3 67
2019-04-15 09:00:00 15.5 8 Este 21 Este 0 1002.7 0.7 83
2019-04-15 08:00:00 13.7 14 Este 18 Este 0 1001.7 -0.7 88
2019-04-15 07:00:00 13.7 14 Este 21 Este 0 1001.7 -1.1 88
2019-04-15 06:00:00 14 12 Este 17 Este 0 1002 -1.5 88
2019-04-15 05:00:00 14.2 6 Este 11 Este 0 1002.4 -1.7 86
2019-04-15 04:00:00 15.3 8 Este 17 Este 0 1002.8 -1.4 82
2019-04-15 03:00:00 15.9 5 Este 9 Este 0 1003.5 -0.8 85
2019-04-15 02:00:00 16.3 0 Calma 5 Nordeste 0 1004.1 -0.4 86
2019-04-15 01:00:00 16.8 3 Nordeste 5 Nordeste 0 1004.2 0 84
2019-04-15 00:00:00 17.6 0 Calma 5 Sudoeste 0 1004.3 0.3 81
2019-04-14 23:00:00 18.9 2 Oeste 8 Sudeste 0 1004.5 0.4 75
2019-04-14 22:00:00 20.4 0 Calma 8 Oeste 0 1004.2 0.1 67
2019-04-14 21:00:00 21.9 3 Oeste 11 Oeste 0 1004 -0.3 58
2019-04-14 20:00:00 24.8 7 Sudoeste 13 Oeste 0 1004.1 -0.6 46
2019-04-14 19:00:00 25.7 7 Sudoeste 15 Sur 0 1004.1 -1.6 40
2019-04-14 18:00:00 26.1 8 Sudoeste 21 Sudoeste 0 1004.3 -2.2 39
2019-04-14 17:00:00 27.4 5 Oeste 21 Oeste 0 1004.7 -2.4 35
2019-04-14 16:00:00 26.2 11 Sudoeste 21 Sudoeste 0 1005.7 -2.3 40
2019-04-14 15:00:00 25 8 Sudoeste 21 Sudoeste 0 1006.5 -2 41
2019-04-14 14:00:00 23.9 5 Sur 13 Sur 0 1007.1 -1.9 45
2019-04-14 13:00:00 22.2 4 Sudoeste 9 Sur 0 1008 -0.9 49
2019-04-14 12:00:00 20.1 3 Este 9 Este 0 1008.5 -0.4 51
2019-04-14 11:00:00 17.3 6 Este 13 Este 0 1009 0.4 62
2019-04-14 10:00:00 14.5 8 Este 11 Este 0 1008.9 0.7 73
2019-04-14 09:00:00 9.9 4 Oeste 5 Oeste 0 1008.9 0.6 93
2019-04-14 08:00:00 8.8 0 Calma 4 Sudoeste 0 1008.6 0 93
2019-04-14 07:00:00 9.1 0 Calma -- -- 0 1008.2 -0.6 92
2019-04-14 06:00:00 9.8 0 Calma 4 Nordeste 0 1008.3 -0.8 90
2019-04-14 05:00:00 10.4 3 Este -- -- 0 1008.6 -0.6 88
2019-04-14 04:00:00 11.3 4 Oeste 11 Sudoeste 0 1008.8 -0.3 83
2019-04-14 03:00:00 12.6 10 Sudoeste 15 Oeste 0 1009.1 0.2 77
2019-04-14 02:00:00 13.3 9 Sudoeste 13 Oeste 0 1009.2 0.4 74
2019-04-14 01:00:00 13.8 10 Oeste 17 Oeste 0 1009.1 0.9 72
2019-04-14 00:00:00 14.8 12 Sudoeste 15 Sudoeste 0 1008.9 1.7 67
2019-04-13 23:00:00 15.2 11 Sudoeste 15 Oeste 0 1008.8 1.9 64
2019-04-13 22:00:00 17.1 8 Sudoeste 11 Sur 0 1008.2 1.7 60
2019-04-13 21:00:00 20.3 6 Sudoeste 21 Sudoeste 0 1007.2 0.6 44
2019-04-13 20:00:00 23.4 15 Sudoeste 26 Sudoeste 0 1006.9 0 32
2019-04-13 19:00:00 24.6 15 Sudoeste 26 Sudoeste 0 1006.5 -1 30
2019-04-13 18:00:00 25 12 Sudoeste 28 Oeste 0 1006.6 -1.5 28
2019-04-13 17:00:00 25 6 Oeste 21 Sudoeste 0 1006.9 -1.6 28
2019-04-13 16:00:00 24.7 7 Sur 18 Sur 0 1007.5 -1.8 29
2019-04-13 15:00:00 23.4 6 Noroeste 18 Sur 0 1008.1 -1.8 32
2019-04-13 14:00:00 22.5 7 Sudoeste 17 Este 0 1008.5 -1.4 32
2019-04-13 13:00:00 20.3 5 Nordeste 11 Este 0 1009.3 -0.6 47
2019-04-13 12:00:00 18.5 5 Este 13 Nordeste 0 1009.9 0.4 52
2019-04-13 11:00:00 15.1 8 Este 13 Este 0 1009.9 0.8 61
2019-04-13 10:00:00 12.3 9 Este 13 Este 0 1009.9 1.3 73
2019-04-13 09:00:00 9.4 5 Este 9 Este 0 1009.5 1.4 89
2019-04-13 08:00:00 5.9 3 Sudoeste 5 Oeste 0 1009.1 1 94
2019-04-13 07:00:00 6.4 2 Sur 4 Sur 0 1008.6 0.7 93
2019-04-13 06:00:00 7.2 0 Calma -- -- 0 1008.1 -0.1 92
2019-04-13 05:00:00 7.8 2 Sudoeste -- -- 0 1008.1 0 92
2019-04-13 04:00:00 8.7 4 Sudoeste 8 Sur 0 1007.9 0 89
2019-04-13 03:00:00 9.6 5 Sur -- -- 0 1008.2 0.6 86
2019-04-13 02:00:00 9.5 0 Calma 8 Oeste 0 1008.1 1.1 86
2019-04-13 01:00:00 10.2 4 Oeste 9 Sudoeste 0 1007.9 1.5 85
2019-04-13 00:00:00 12 3 Oeste 11 Norte 0 1007.6 2.1 77
2019-04-12 23:00:00 14 5 Sudoeste 8 Sudoeste 0 1007 1.8 70
2019-04-12 22:00:00 16 7 Este 9 Sudoeste 0 1006.4 1.3 57
2019-04-12 21:00:00 19.1 8 Sudoeste 15 Sur 0 1005.5 0.1 48
2019-04-12 20:00:00 22.7 11 Sudoeste 15 Sur 0 1005.2 -0.6 30
2019-04-12 19:00:00 23.1 12 Sur 18 Sudoeste 0 1005.1 -1.6 29
2019-04-12 18:00:00 23.2 10 Sur 21 Sudoeste 0 1005.4 -1.9 29
2019-04-12 17:00:00 23.1 10 Sudoeste 17 Oeste 0 1005.8 -2.1 29
2019-04-12 16:00:00 22.6 11 Sur 22 Sur 0 1006.7 -1.8 29
2019-04-12 15:00:00 22.2 7 Sudeste 18 Sudeste 0 1007.3 -1.7 27
2019-04-12 14:00:00 21 4 Sudeste 21 Sudeste 0 1007.9 -1 35
2019-04-12 13:00:00 19 8 Este 21 Este 0 1008.5 -0.5 42
2019-04-12 12:00:00 17 13 Nordeste 22 Este 0 1009 0.2 50
2019-04-12 11:00:00 14.3 11 Nordeste 17 Este 0 1008.9 0.7 62
2019-04-12 10:00:00 11.5 4 Nordeste 8 Este 0 1009 1.3 74
2019-04-12 09:00:00 8.9 4 Este 13 Este 0 1008.8 0.9 88
2019-04-12 08:00:00 6 5 Este 9 Este 0 1008.2 0.6 96
2019-04-12 07:00:00 5.8 5 Este -- -- 0 1007.7 0.3 96
2019-04-12 06:00:00 5.8 2 Oeste 5 Sudoeste 0 1007.9 0.4 95
2019-04-12 05:00:00 6.6 3 Sur 8 Sur 0 1007.6 -0.3 94
2019-04-12 04:00:00 7.3 3 Sudeste -- -- 0 1007.4 -0.2 92
2019-04-12 03:00:00 8.1 3 Nordeste 11 Sudoeste 0 1007.5 -0.1 89
2019-04-12 02:00:00 9.1 2 Sur 9 Nordeste 0 1007.9 0.6 86
2019-04-12 01:00:00 10.3 7 Nordeste 9 Sudeste 0 1007.6 0.8 79
2019-04-12 00:00:00 11.1 9 Este 17 Este 0 1007.6 1.5 77
2019-04-11 23:00:00 12.2 4 Sudoeste 5 Oeste 0 1007.3 1.5 81
2019-04-11 22:00:00 14.6 4 Sudeste 11 Noroeste 0 1006.8 1 69
2019-04-11 21:00:00 16 10 Noroeste 11 Noroeste 0 1006.1 0.2 64
2019-04-11 20:00:00 18.6 8 Sudoeste 15 Sudoeste 0 1005.8 -0.3 49
2019-04-11 19:00:00 20.9 10 Oeste 17 Oeste 0 1005.8 -1 37
2019-04-11 18:00:00 20.9 11 Sudoeste 18 Sudoeste 0 1005.9 -1.4 37
2019-04-11 17:00:00 21 8 Sudeste 17 Sudoeste 0 1006.1 -1.8 38
2019-04-11 16:00:00 20.4 9 Oeste 18 Oeste 0 1006.8 -1.8 39
2019-04-11 15:00:00 20.3 11 Sudoeste 17 Oeste 0 1007.3 -1.6 42
2019-04-11 14:00:00 18.9 9 Este 17 Este 0 1007.9 -0.9 46
2019-04-11 13:00:00 17.6 8 Este 21 Este 0 1008.6 -0.3 51
2019-04-11 12:00:00 15.8 7 Este 15 Este 0 1008.9 0.3 60
2019-04-11 11:00:00 13.5 10 Este 18 Este 0 1008.8 0.7 69
2019-04-11 10:00:00 11.6 6 Este 9 Este 0 1008.9 1.3 79
2019-04-11 09:00:00 8.3 0 Calma 5 Este 0 1008.6 1.1 93
2019-04-11 08:00:00 5.2 4 Sur 5 Sudoeste 0 1008.1 0.9 96
2019-04-11 07:00:00 5.4 0 Calma 5 Noroeste 0 1007.6 0.8 96
2019-04-11 06:00:00 6.3 2 Sur -- -- 0 1007.5 0.5 94
2019-04-11 05:00:00 7 4 Sudoeste 13 Este 0 1007.2 0.1 93
2019-04-11 04:00:00 8.4 5 Este 11 Sudoeste 0 1006.8 -0.1 86
2019-04-11 03:00:00 9 4 Oeste 13 Oeste 0 1007 0.2 84
2019-04-11 02:00:00 10.5 9 Este 22 Este 0 1007.1 0.5 75
2019-04-11 01:00:00 9.9 4 Sur 9 Sur 0 1006.9 0.9 81
2019-04-11 00:00:00 10.8 6 Sudoeste 15 Oeste 0 1006.8 2 76
2019-04-10 23:00:00 11.1 10 Noroeste 13 Noroeste 0 1006.6 2.3 75
2019-04-10 22:00:00 13.1 6 Oeste 9 Noroeste 0 1006 2.1 66
2019-04-10 21:00:00 15.7 5 Noroeste 22 Oeste 0 1004.8 0.9 57
2019-04-10 20:00:00 18.8 16 Oeste 42 Oeste 0 1004.3 -0.1 38
2019-04-10 19:00:00 20 15 Noroeste 30 Oeste 0 1003.9 -1.3 38
2019-04-10 18:00:00 20.1 17 Noroeste 32 Oeste 0 1003.9 -1.9 36
2019-04-10 17:00:00 20.2 22 Oeste 33 Oeste 0 1004.4 -2.2 37
2019-04-10 16:00:00 18.2 21 Sudoeste 32 Sudoeste 0 1005.2 -2.1 53
2019-04-10 15:00:00 18.3 14 Sudoeste 24 Sudoeste 0 1005.8 -1.8 51
2019-04-10 14:00:00 15.7 13 Sudoeste 24 Sudoeste 0 1006.6 -1.1 60
2019-04-10 13:00:00 14.4 12 Oeste 24 Sudoeste 0 1007.3 -0.3 66
2019-04-10 12:00:00 13.4 15 Oeste 22 Oeste 0 1007.6 0.4 72
2019-04-10 11:00:00 12.8 10 Sudoeste 15 Sudoeste 0 1007.7 0.6 76
2019-04-10 10:00:00 11.3 4 Sur 15 Oeste 0 1007.6 0.9 86
2019-04-10 09:00:00 8.3 9 Oeste 13 Oeste 0 1007.2 0.7 97
2019-04-10 08:00:00 6.1 9 Sur 11 Sudoeste 0 1007.1 0.2 96
2019-04-10 07:00:00 6.5 3 Sudoeste 11 Noroeste 0 1006.7 -0.3 95
2019-04-10 06:00:00 7 3 Noroeste 13 Oeste 0 1006.5 -0.8 95
2019-04-10 05:00:00 7.4 3 Sudoeste 9 Sur 0 1006.9 -0.4 92
2019-04-10 04:00:00 8 5 Sur 9 Sur 0 1007 -0.1 94
2019-04-10 03:00:00 8.9 7 Sudoeste 15 Oeste 0 1007.3 0.2 92
2019-04-10 02:00:00 9.7 10 Oeste 15 Oeste 0 1007.3 0.4 91
2019-04-10 01:00:00 10.7 11 Sudoeste 15 Sudoeste 0 1007.1 0.9 90
2019-04-10 00:00:00 11 3 Noroeste 8 Sur 0 1007.1 1.5 91
2019-04-09 23:00:00 11.1 5 Oeste 13 Oeste 0 1006.9 1.9 91
2019-04-09 22:00:00 11.3 12 Sudoeste 15 Oeste 0 1006.2 1.4 88
2019-04-09 21:00:00 13.3 9 Oeste 39 Oeste 0.1 1005.6 0.7 79
2019-04-09 20:00:00 15.7 21 Oeste 41 Oeste 0 1005 -0.7 64
2019-04-09 19:00:00 16.9 22 Oeste 39 Oeste 0 1004.8 -1 59
2019-04-09 18:00:00 17.4 23 Sudoeste 37 Sudoeste 0 1004.9 -1.5 60
2019-04-09 17:00:00 15 14 Oeste 39 Oeste 0.5 1005.7 -1.5 76
2019-04-09 16:00:00 17.9 19 Oeste 33 Oeste 0 1005.8 -1.8 56
2019-04-09 15:00:00 16.8 16 Sudoeste 30 Oeste 0 1006.4 -1.9 67
2019-04-09 14:00:00 14.7 22 Oeste 32 Oeste 0.3 1007.2 -1.2 74
2019-04-09 13:00:00 15 18 Sudoeste 30 Oeste 0 1007.6 -0.8 77
2019-04-09 12:00:00 12.3 9 Oeste 15 Oeste 0 1008.3 0.2 88
2019-04-09 11:00:00 10.4 9 Oeste 15 Noroeste 0 1008.4 0.7 93
2019-04-09 10:00:00 9.7 6 Oeste 13 Noroeste 0 1008.4 1.1 98
2019-04-09 09:00:00 8.9 7 Oeste 11 Oeste 0 1008.1 1 98
2019-04-09 08:00:00 9 4 Oeste 9 Oeste 0 1007.7 0.5 98
2019-04-09 07:00:00 9.3 5 Oeste 11 Sudoeste 0 1007.3 0.1 98
2019-04-09 06:00:00 9.7 7 Sudoeste 15 Oeste 0 1007.1 0 98
2019-04-09 05:00:00 10.1 12 Oeste 22 Sudoeste 0 1007.2 0.3 97
2019-04-09 04:00:00 9.8 9 Oeste 13 Oeste 0 1007.2 0.6 96
2019-04-09 03:00:00 9 6 Oeste 8 Oeste 0 1007.1 0.8 93
2019-04-09 02:00:00 10.5 5 Noroeste 13 Sudoeste 0 1006.9 1.1 90
2019-04-09 01:00:00 12.1 9 Sudoeste 26 Sudoeste 0 1006.6 1.5 91
2019-04-09 00:00:00 13.2 10 Sudoeste 22 Sudoeste 0 1006.3 1.8 90
2019-04-08 23:00:00 13.8 12 Oeste 28 Sudoeste 0 1005.8 1.7 91
2019-04-08 22:00:00 13.9 11 Sudoeste 24 Sudoeste 1.8 1005.1 1.1 93
2019-04-08 21:00:00 14.3 16 Sudoeste 26 Oeste 0 1004.5 0.6 86
2019-04-08 20:00:00 15.4 21 Sudoeste 42 Oeste 0 1004.1 0 81
2019-04-08 19:00:00 15.6 21 Oeste 35 Sudoeste 0 1004 -0.4 84
2019-04-08 18:00:00 15.3 17 Sudoeste 26 Sudoeste 2.2 1003.9 -1.3 87
2019-04-08 17:00:00 16.3 14 Sudoeste 33 Sur 1 1004.1 -1.5 89
2019-04-08 16:00:00 16.9 24 Sudoeste 37 Sudoeste 0 1004.4 -1.6 82
2019-04-08 15:00:00 16.6 26 Sudoeste 41 Sudoeste 0.1 1005.2 -0.7 79
2019-04-08 14:00:00 16.4 23 Sudoeste 33 Oeste 0.1 1005.6 -0.1 83
2019-04-08 13:00:00 15.3 23 Oeste 42 Sudoeste 1.2 1006 0.2 87
2019-04-08 12:00:00 15.5 18 Sudoeste 28 Oeste 0.5 1005.9 -0.1 91
2019-04-08 11:00:00 14.8 16 Sudoeste 26 Sudoeste 0.2 1005.7 0.3 93
2019-04-08 10:00:00 13.8 8 Sudoeste 15 Sudoeste 0.3 1005.8 0.8 97
2019-04-08 09:00:00 13.5 12 Sudoeste 18 Oeste 0.1 1006 1.2 97
2019-04-08 08:00:00 13.5 12 Oeste 28 Sudoeste 1.1 1005.4 0.2 97
2019-04-08 07:00:00 13.7 15 Sudoeste 24 Sudoeste 1.8 1005 -0.2 97
2019-04-08 06:00:00 13.6 12 Sudoeste 21 Sudoeste 0 1004.8 -0.7 97
2019-04-08 05:00:00 13.7 11 Oeste 26 Oeste 4.4 1005.2 -0.7 98
2019-04-08 04:00:00 13.3 8 Oeste 13 Sudoeste 0.6 1005.2 -1 97
2019-04-08 03:00:00 13.2 5 Sudoeste 9 Sudoeste 0.1 1005.5 -0.5 97
2019-04-08 02:00:00 13 4 Sudoeste 8 Sudoeste 0 1005.9 0.1 97
2019-04-08 01:00:00 12.8 4 Noroeste 8 Oeste 0 1006.2 0.9 97
2019-04-08 00:00:00 12.8 5 Sur 9 Sur 0 1006 1.1 97
2019-04-07 23:00:00 12.7 2 Sudoeste 5 Oeste 0.4 1005.8 1 97
2019-04-07 22:00:00 12.7 3 Norte 8 Norte 1.2 1005.3 0.6 97
2019-04-07 21:00:00 12.8 0 Calma 5 Este 1.2 1004.9 0.1 95
2019-04-07 20:00:00 13.1 3 Noroeste 11 Sudoeste 0.1 1004.8 0.1 93
2019-04-07 19:00:00 13.5 8 Sudoeste 18 Oeste 0.4 1004.7 -0.4 92
2019-04-07 18:00:00 13.9 13 Oeste 22 Sudoeste 0.2 1004.8 -0.2 86
2019-04-07 17:00:00 14.8 13 Oeste 35 Oeste 0 1004.7 -0.5 74
2019-04-07 16:00:00 15.6 23 Oeste 42 Oeste 0 1005.1 -0.2 68
2019-04-07 15:00:00 15.4 13 Oeste 22 Oeste 0 1005 -0.4 62
2019-04-07 14:00:00 16.1 14 Oeste 24 Oeste 0 1005.2 0.5 61
2019-04-07 13:00:00 15.3 12 Sudoeste 22 Sudoeste 0 1005.3 1.1 65
2019-04-07 12:00:00 13.4 15 Sudoeste 26 Oeste 0 1005.4 1.5 74
2019-04-07 11:00:00 11.8 14 Sudoeste 21 Oeste 0 1004.7 1.6 84
2019-04-07 10:00:00 9.9 13 Oeste 21 Oeste 0 1004.2 1.6 91
2019-04-07 09:00:00 9 9 Oeste 17 Sudoeste 0 1003.9 1.7 94
2019-04-07 08:00:00 8.5 9 Oeste 18 Oeste 0 1003.1 1 93
2019-04-07 07:00:00 8.4 11 Oeste 22 Oeste 0 1002.6 0.5 93
2019-04-07 06:00:00 8.4 12 Oeste 22 Oeste 0 1002.2 0.2 93
2019-04-07 05:00:00 8.7 13 Oeste 30 Oeste 0 1002.1 0.2 92
2019-04-07 04:00:00 9.1 16 Sudoeste 26 Oeste 0 1002.1 0.6 92
2019-04-07 03:00:00 9.3 10 Oeste 18 Sudoeste 0 1002 0.8 95
2019-04-07 02:00:00 9 8 Oeste 11 Oeste 0 1001.9 1 96
2019-04-07 01:00:00 8.5 8 Sudoeste 15 Sudoeste 0 1001.5 1.3 95
2019-04-07 00:00:00 8.5 8 Sudoeste 11 Oeste 0 1001.2 -- 94
2019-04-06 23:00:00 9.2 8 Sudoeste 22 Sudoeste 0.1 1000.9 2 93
2019-04-06 22:00:00 8.7 8 Sudoeste -- -- -- 1000.2 2.2 88
2019-04-06 21:00:00 -- -- -- 24 Oeste 0 -- -- --
2019-04-06 20:00:00 11.3 14 Sudoeste 30 Oeste 0.1 998.9 2.1 77
2019-04-06 19:00:00 13.1 14 Oeste 37 Oeste 0.4 998 0.4 67
2019-04-06 18:00:00 11.7 23 Oeste 45 Oeste 0.3 997.6 -0.5 79
2019-04-06 17:00:00 15.2 25 Sudoeste 41 Oeste 0 996.8 -1.8 63
2019-04-06 16:00:00 13 22 Oeste 32 Sudoeste 0 997.6 -1.5 74
2019-04-06 15:00:00 10.9 21 Sudoeste 42 Sudoeste 0.4 998.1 -1.3 72
2019-04-06 14:00:00 11.3 18 Oeste 30 Oeste 0 998.6 -0.7 79
2019-04-06 13:00:00 11.9 12 Oeste 22 Oeste 0 999.1 0 80
2019-04-06 12:00:00 11 14 Oeste 24 Oeste 0 999.4 0.6 84
2019-04-06 11:00:00 9.3 10 Oeste 17 Oeste 0.3 999.3 0.9 91
2019-04-06 10:00:00 8.3 10 Oeste 17 Sudoeste 0.1 999.1 0.9 94
2019-04-06 09:00:00 7.1 9 Sudoeste 15 Oeste 0 998.8 1.1 96
2019-04-06 08:00:00 6.5 9 Sudoeste 18 Sudoeste 0 998.4 0.7 96
2019-04-06 07:00:00 6.6 12 Sudoeste 21 Sudoeste 0 998.2 0.6 96
2019-04-06 06:00:00 7.4 12 Sudoeste 22 Oeste 0 997.7 -0.2 95
2019-04-06 05:00:00 7.6 14 Oeste 24 Oeste 0 997.7 -0.4 95
2019-04-06 04:00:00 7.4 9 Oeste 17 Oeste 0 997.6 0.3 95
2019-04-06 03:00:00 7.7 12 Oeste 22 Oeste 0 997.9 0.8 93
2019-04-06 02:00:00 7.9 17 Oeste 28 Oeste 0 998.1 1.6 94
2019-04-06 01:00:00 7.9 10 Oeste 17 Oeste 0 997.3 1.7 94
2019-04-06 00:00:00 8.6 11 Sudoeste 22 Sudoeste 0 997.1 2.6 92
2019-04-05 23:00:00 9.2 17 Oeste 30 Oeste 0 996.5 3 85
2019-04-05 22:00:00 10.3 19 Sudoeste 37 Sudoeste 0 995.6 3 74
2019-04-05 21:00:00 12.1 26 Oeste 41 Oeste 0 994.5 2.3 59
2019-04-05 20:00:00 13.9 19 Oeste 42 Sudoeste 0 993.5 1.3 45
2019-04-05 19:00:00 15.6 28 Oeste 42 Oeste 0 992.6 0.9 37
2019-04-05 18:00:00 14.4 25 Sudoeste 39 Oeste 0 992.2 0.3 50
2019-04-05 17:00:00 12.7 15 Oeste 48 Oeste 0.4 992.2 -0.1 65
2019-04-05 16:00:00 15.2 21 Sudoeste 37 Oeste 0 991.7 -0.3 52
2019-04-05 15:00:00 14.6 17 Oeste 33 Oeste 0 991.9 -0.2 64
2019-04-05 14:00:00 12 8 Oeste 37 Oeste 2.7 992.3 0.2 81
2019-04-05 13:00:00 12.2 15 Oeste 32 Sudoeste 2.2 992 -0.1 91
2019-04-05 12:00:00 11.1 8 Oeste 18 Oeste 0 992.1 0.3 88
2019-04-05 11:00:00 10.1 3 Oeste 9 Oeste 0.4 992.1 0 91
2019-04-05 10:00:00 9.3 3 Oeste 13 Este 0.8 992.1 -0.3 89
2019-04-05 09:00:00 9.3 6 Sur 30 Oeste 1.4 991.8 -1 91
2019-04-05 08:00:00 9.5 3 Oeste 17 Sudoeste 3.3 992.1 -1.1 90
2019-04-05 07:00:00 10.9 9 Sudoeste 18 Sudoeste 0 992.4 -1.2 67
2019-04-05 06:00:00 10.5 7 Sudoeste 11 Sudoeste 0 992.8 -1.2 70
2019-04-05 05:00:00 10.5 7 Sudoeste 15 Sudoeste 0 993.2 -0.9 68
2019-04-05 04:00:00 10.7 9 Oeste 15 Sudoeste 0 993.6 -0.5 67
2019-04-05 03:00:00 10.4 5 Sudoeste 11 Sudoeste 0 994 0.1 69
2019-04-05 02:00:00 10.2 9 Oeste 18 Oeste 0 994.1 0.5 68
2019-04-05 01:00:00 10.6 12 Sudoeste 32 Oeste 0 994.1 1.1 64
2019-04-05 00:00:00 12.1 21 Oeste 33 Sudoeste 0 993.9 1.7 58
2019-04-04 23:00:00 13.2 21 Sudoeste 35 Sudoeste 0 993.6 1.7 51
2019-04-04 22:00:00 14.3 20 Sudoeste 32 Sudoeste 0 993 1.1 39
2019-04-04 21:00:00 16 18 Sudoeste 37 Sudoeste 0 992.2 0.1 32
2019-04-04 20:00:00 18.7 18 Sudoeste 39 Sudoeste 0 991.9 -0.7 22
2019-04-04 19:00:00 20.1 21 Sudoeste 33 Sudoeste 0 991.9 -1.4 22
2019-04-04 18:00:00 20.3 21 Sudoeste 30 Sudoeste 0 992.1 -1.9 25
2019-04-04 17:00:00 20.1 18 Sudoeste 30 Sur 0 992.6 -2 24
2019-04-04 16:00:00 19.9 14 Sudoeste 26 Sudoeste 0 993.3 -1.8 25
2019-04-04 15:00:00 19 10 Sudoeste 21 Sur 0 994 -1.4 27
2019-04-04 14:00:00 17.1 5 Norte 17 Sur 0 994.6 -0.6 30
2019-04-04 13:00:00 16.6 7 Este 15 Sur 0 995.1 -0.1 32
2019-04-04 12:00:00 15.5 6 Sur 15 Este 0 995.4 0.7 35
2019-04-04 11:00:00 13.3 4 Sur 9 Sudeste 0 995.2 1.1 42
2019-04-04 10:00:00 9.9 5 Sudoeste 11 Sudeste 0 995.2 1.6 53
2019-04-04 09:00:00 6.2 4 Sur 9 Sur 0 994.7 1.3 73
2019-04-04 08:00:00 5.5 8 Sur 9 Sur 0 994.1 0.5 70
2019-04-04 07:00:00 8.8 5 Oeste 26 Oeste 0 993.6 -0.1 50
2019-04-04 06:00:00 5.8 8 Sudoeste 11 Sudoeste 0 993.4 -0.6 76
2019-04-04 05:00:00 6.5 4 Sur 11 Norte 0 993.6 -0.5 75
2019-04-04 04:00:00 9.6 4 Noroeste 17 Oeste 0 993.7 -0.4 54
2019-04-04 03:00:00 12.2 3 Sudoeste 24 Norte 0 994 -0.1 41
2019-04-04 02:00:00 14.1 12 Nordeste 30 Nordeste 0 994.1 0 33
2019-04-04 01:00:00 14.7 6 Noroeste 18 Este 0 994.1 0.5 34
2019-04-04 00:00:00 14.8 4 Sur 22 Sudoeste 0 994.1 1.1 47
2019-04-03 23:00:00 16 9 Sudoeste 22 Oeste 0 994.1 1.7 46
2019-04-03 22:00:00 17.1 13 Sudoeste 22 Sudoeste 0 993.6 0.9 42
2019-04-03 21:00:00 18.7 14 Oeste 33 Sudoeste 0 993 -0.1 38
2019-04-03 20:00:00 21.4 25 Sudoeste 42 Sudoeste 0 992.4 -1.5 29
2019-04-03 19:00:00 22.8 24 Sudoeste 45 Sudoeste 0 992.7 -2.2 25
2019-04-03 18:00:00 23.4 29 Sudoeste 46 Oeste 0 993.1 -2.9 27
2019-04-03 17:00:00 23.2 27 Oeste 45 Sudoeste 0 993.9 -2.8 29
2019-04-03 16:00:00 23.7 23 Sudoeste 37 Oeste 0 994.9 -2.9 27
2019-04-03 15:00:00 23.1 21 Sudoeste 39 Sudoeste 0 996 -2.7 29
2019-04-03 14:00:00 22.3 21 Sudoeste 33 Sudoeste 0 996.7 -2.4 32
2019-04-03 13:00:00 20.4 8 Sudoeste 15 Sudoeste 0 997.8 -1.9 52
2019-04-03 12:00:00 18.3 4 Sudeste 11 Sur 0 998.7 -1.6 62
2019-04-03 11:00:00 15.4 4 Sudeste 9 Este 0 999.1 -1.3 77
2019-04-03 10:00:00 11.9 4 Nordeste 8 Nordeste 0 999.7 -1.1 94
2019-04-03 09:00:00 8.6 0 Calma 4 Nordeste 0 1000.3 -0.9 96
2019-04-03 08:00:00 7.7 2 Sudeste 5 Sudoeste 0 1000.4 -1.2 96
2019-04-03 07:00:00 8.1 -- -- -- -- 0 1000.8 -1.2 95
2019-04-03 06:00:00 8.7 3 Sur 5 Sudoeste 0 1001.2 -1.3 94
2019-04-03 05:00:00 9.3 3 Sur 8 Norte 0 1001.6 -1.5 93
2019-04-03 04:00:00 10 2 Nordeste 8 Sur 0 1002 -1.3 92
2019-04-03 03:00:00 10.1 4 Sur 8 Sudoeste 0 1002.5 -0.9 90
2019-04-03 02:00:00 11.5 5 Sudoeste 9 Sur 0 1003.1 -0.3 87
2019-04-03 01:00:00 12.5 6 Sur -- -- 0 1003.3 0.2 85
2019-04-03 00:00:00 14.1 5 Sudoeste 9 Oeste 0 1003.4 0.7 78
2019-04-02 23:00:00 14.7 6 Oeste 11 Sur 0 1003.4 0.7 77
2019-04-02 22:00:00 16.1 6 Oeste 13 Sudoeste 0 1003.1 0.4 69
2019-04-02 21:00:00 18.6 11 Sudoeste 26 Sudoeste 0 1002.7 -0.3 56
2019-04-02 20:00:00 21.5 15 Sudoeste 22 Sudoeste 0 1002.7 -0.8 45
2019-04-02 19:00:00 22.6 12 Oeste 21 Sudoeste 0 1002.7 -1.7 40
2019-04-02 18:00:00 22.7 12 Sudoeste 21 Oeste 0 1003 -2.4 40
2019-04-02 17:00:00 22 5 Sudoeste 15 Sudoeste 0 1003.5 -2.7 43
2019-04-02 16:00:00 21 7 Sudoeste 17 Sudoeste 0 1004.4 -2.5 46
2019-04-02 15:00:00 20.7 6 Sudeste 17 Sur 0 1005.4 -1.7 50
2019-04-02 14:00:00 19.8 8 Sur 15 Sudoeste 0 1006.2 -0.9 53
2019-04-02 13:00:00 17.7 5 Sudoeste 11 Sudoeste 0 1006.9 0.2 66
2019-04-02 12:00:00 16.4 5 Oeste 13 Oeste 0 1007.1 0.7 73
2019-04-02 11:00:00 15.2 0 Calma 8 Oeste 0 1007.1 1 83
2019-04-02 10:00:00 13.8 3 Norte 9 Sur 0 1006.7 0.8 91
2019-04-02 09:00:00 13.1 7 Sur 11 Sur 0 1006.4 0.7 94
2019-04-02 08:00:00 13.2 0 Calma 8 Oeste 0 1006.1 0.1 94
2019-04-02 07:00:00 13 4 Sudoeste 9 Sudoeste 0 1005.9 -0.2 93
2019-04-02 06:00:00 13.1 5 Sur 9 Sudoeste 0 1005.7 -0.8 92
2019-04-02 05:00:00 13.1 4 Nordeste 9 Norte 0 1006 -0.6 91
2019-04-02 04:00:00 13.2 3 Nordeste 5 Sur 0 1006.1 -0.4 92
2019-04-02 03:00:00 12.9 2 Sur 5 Norte 0 1006.5 0.1 93
2019-04-02 02:00:00 12.4 0 Calma 8 Sur 0 1006.6 0.6 94
2019-04-02 01:00:00 12 4 Nordeste 8 Nordeste 0 1006.5 1.4 95
2019-04-02 00:00:00 11.5 4 Sudoeste 8 Sudoeste 0 1006.4 2.1 93
2019-04-01 23:00:00 12.4 -- -- -- -- 0 1006 2.1 92
2019-04-01 22:00:00 13.7 7 Sudoeste 11 Sudoeste 0 1005.1 1.8 87
2019-04-01 21:00:00 15.1 4 Oeste 13 Oeste 0 1004.3 0.8 86
2019-04-01 20:00:00 15.8 10 Oeste 15 Oeste 0 1003.9 1 82
2019-04-01 19:00:00 16.7 9 Oeste 22 Oeste 0.9 1003.3 0.3 79
2019-04-01 18:00:00 15.2 16 Oeste 41 Sudoeste 0.3 1003.5 0.4 81
2019-04-01 17:00:00 19.3 20 Sudoeste 41 Sudoeste 0 1002.9 -0.7 55
2019-04-01 16:00:00 20.4 17 Sudoeste 28 Sudoeste 0 1003 -0.7 48
2019-04-01 15:00:00 18.7 12 Sudoeste 26 Sudoeste 0 1003.1 -1 62
2019-04-01 14:00:00 18.4 19 Sudoeste 28 Sudoeste 0 1003.6 -0.1 60
2019-04-01 13:00:00 18.8 6 Sudoeste 15 Sudoeste 0 1003.7 0.6 61
2019-04-01 12:00:00 18.6 7 Este 11 Nordeste 0 1004.1 1.4 67
2019-04-01 11:00:00 17 6 Sudeste 11 Sudeste 0 1003.7 1.5 76
2019-04-01 10:00:00 14.7 7 Este 11 Este 0 1003.1 1.3 88
2019-04-01 09:00:00 12.3 3 Este -- -- 0 1002.7 0.9 95
2019-04-01 08:00:00 12.4 0 Calma 5 Sudeste 0 1002.2 0.3 95
2019-04-01 07:00:00 12.7 3 Nordeste -- -- 0 1001.8 -0.3 95
2019-04-01 06:00:00 12.6 4 Sudeste 8 Sudeste 0.4 1001.8 -0.4 94
2019-04-01 05:00:00 12.9 4 Sur 8 Este 0.6 1001.9 -0.1 93
2019-04-01 04:00:00 13 0 Calma 5 Sur 0 1002.1 0.2 91
2019-04-01 03:00:00 13 3 Sudeste 9 Sur 0 1002.2 0.3 90
2019-04-01 02:00:00 13.4 8 Sur 9 Sur 0 1002 0.4 90
2019-04-01 01:00:00 13.8 4 Sudoeste 11 Sudoeste 0 1001.9 1.5 89
2019-04-01 00:00:00 14 6 Oeste 15 Oeste 0 1001.9 2.1 87
2019-03-31 23:00:00 13.9 11 Sudoeste 22 Sudoeste 0 1001.6 2.2 86
2019-03-31 22:00:00 14.9 2 Sudoeste 8 Este 0 1000.4 1.2 81
2019-03-31 21:00:00 15.9 5 Norte 15 Oeste 0 999.8 0.9 69
2019-03-31 20:00:00 16.3 13 Noroeste 30 Noroeste 0 999.4 0.5 64
2019-03-31 19:00:00 19 13 Nordeste 24 Este 0 999.2 -0.5 60
2019-03-31 18:00:00 20.6 15 Este 26 Nordeste 0 998.9 -- 51
2019-03-31 17:00:00 21.2 14 Este 21 Este 0 998.9 -- 49
2019-03-31 16:00:00 21.1 8 Este -- -- -- 999.7 -- 53
2019-03-31 15:00:00 -- -- -- -- -- -- -- -- --
2019-03-31 14:00:00 -- -- -- -- -- -- -- -- --
2019-03-31 13:00:00 -- -- -- -- -- -- -- -- --
2019-03-31 12:00:00 14.5 10 Nordeste 15 Nordeste 0.2 1002.6 0.6 87
2019-03-31 11:00:00 13.6 8 Este 11 Este 0.2 1002.3 0.5 92
2019-03-31 10:00:00 12.7 7 Este 11 Este 0 1002.1 0.3 95
2019-03-31 09:00:00 12.5 6 Este 11 Este 0.2 1002 0.1 95
2019-03-31 08:00:00 12.6 9 Este 11 Este 0.8 1001.8 -0.7 94
2019-03-31 07:00:00 13 9 Este 13 Este 1 1001.8 -1.2 91
2019-03-31 06:00:00 13.5 6 Este -- -- 0 1001.9 -1.8 84
2019-03-31 05:00:00 13.6 0 Calma 4 Oeste 0 1002.5 -1.8 75
2019-03-31 03:00:00 13.8 0 Calma 11 Oeste 0 1003.7 -1.2 74
2019-03-31 01:00:00 14.2 5 Oeste 9 Oeste 0 1004.3 0 69
2019-03-31 00:00:00 15.1 6 Oeste 13 Oeste 0 1004.8 0.8 64
2019-03-30 23:00:00 15.2 3 Oeste 18 Sudoeste 0 1004.9 1.4 63
2019-03-30 22:00:00 15.8 9 Sudoeste 24 Sudoeste 0 1004.3 1.4 59
2019-03-30 21:00:00 16.4 11 Sudoeste 30 Sudoeste 0 1004 1.6 55
2019-03-30 20:00:00 17.1 13 Oeste 37 Sur 0 1003.5 0.9 52
2019-03-30 19:00:00 20.2 19 Sur 32 Sur 0 1002.9 0.3 44
2019-03-30 18:00:00 23.1 14 Sudoeste 24 Sudoeste 0 1002.4 -1.4 35
2019-03-30 17:00:00 24 8 Sur 17 Sudoeste 0 1002.6 -2.2 31
2019-03-30 16:00:00 24.8 8 Sudoeste 21 Sur 0 1002.6 -3.3 28
2019-03-30 15:00:00 23.5 5 Oeste 18 Sudeste 0 1003.8 -3.3 28
2019-03-30 14:00:00 23.5 6 Este 21 Sudeste 0 1004.8 -3.2 27
2019-03-30 13:00:00 21.4 12 Nordeste 26 Este 0 1005.9 -2.6 31
2019-03-30 12:00:00 19.8 11 Este 22 Este 0 1007.1 -1.4 34
2019-03-30 11:00:00 17.5 15 Este 30 Este 0 1008 -0.8 39
2019-03-30 10:00:00 15.1 15 Este 24 Este 0 1008.5 0.1 53
2019-03-30 09:00:00 11.8 10 Este 13 Este 0 1008.5 0.2 72
2019-03-30 08:00:00 8.5 0 Calma 5 Nordeste 0 1008.8 0.3 86
2019-03-30 07:00:00 7.2 4 Este 8 Sudeste 0 1008.4 -0.7 90
2019-03-30 06:00:00 6.9 3 Sudeste -- -- 0 1008.3 -1.2 86
2019-03-30 05:00:00 7.6 0 Calma 8 Sur 0 1008.5 -1.5 85
2019-03-30 04:00:00 8.8 0 Calma 9 Sur 0 1009.1 -0.9 85
2019-03-30 03:00:00 9.4 0 Calma 8 Sur 0 1009.5 -0.6 83
2019-03-30 02:00:00 11 7 Sur 9 Sur 0 1010 -0.2 77
2019-03-30 01:00:00 11.2 6 Noroeste 9 Noroeste 0 1010 0.3 75
2019-03-30 00:00:00 12.3 6 Oeste 13 Sudoeste 0 1010.1 0.9 69
2019-03-29 23:00:00 13.7 10 Sudoeste 15 Sudoeste 0 1010.2 1.3 62
2019-03-29 22:00:00 16.5 10 Sudoeste 21 Sudoeste 0 1009.7 1.2 47
2019-03-29 21:00:00 17.3 6 Sur 18 Oeste 0 1009.2 1.2 47
2019-03-29 20:00:00 18 10 Oeste 18 Sur 0 1008.9 0.8 43
2019-03-29 19:00:00 19.4 15 Sudoeste 26 Sudoeste 0 1008.5 -0.2 37
2019-03-29 18:00:00 22.1 15 Sudoeste 24 Sudoeste 0 1008 -1.5 29
2019-03-29 17:00:00 23.7 9 Este 18 Este 0 1008.1 -2.3 23
2019-03-29 16:00:00 23 5 Este 26 Este 0 1008.7 -2.3 22
2019-03-29 15:00:00 21.7 4 Norte 24 Este 0 1009.5 -2.4 21
2019-03-29 14:00:00 21.8 12 Sudeste 22 Sudeste 0 1010.4 -2.3 19
2019-03-29 13:00:00 20.1 13 Nordeste 26 Este 0 1011 -2 21
2019-03-29 12:00:00 18.6 14 Nordeste 24 Este 0 1011.9 -1 23
2019-03-29 11:00:00 15.9 17 Este 26 Este 0 1012.7 0.1 30
2019-03-29 10:00:00 12.1 14 Este 18 Nordeste 0 1013 0.8 43
2019-03-29 09:00:00 8.4 7 Este 13 Este 0 1012.9 0.8 65
2019-03-29 08:00:00 4.3 8 Este 11 Este 0 1012.6 0.7 85
2019-03-29 07:00:00 3.3 6 Sur 9 Sur 0 1012.2 0.3 87
2019-03-29 06:00:00 3.2 4 Norte 8 Nordeste 0 1012.1 0.1 88
2019-03-29 05:00:00 3.8 4 Sur -- -- 0 1011.9 -0.3 85
2019-03-29 04:00:00 4.5 0 Calma 5 Oeste 0 1011.9 -0.5 84
2019-03-29 03:00:00 5.3 8 Sur 17 Sudoeste 0 1012 -0.8 81
2019-03-29 02:00:00 6.4 6 Sudoeste 8 Sudoeste 0 1012.2 -0.4 73
2019-03-29 01:00:00 8 5 Sur 8 Sudoeste 0 1012.4 -0.1 69
2019-03-29 00:00:00 9.1 3 Sur 11 Sur 0 1012.8 1 67
2019-03-28 23:00:00 10.5 9 Sudoeste 15 Sudoeste 0 1012.6 1.9 58
2019-03-28 22:00:00 14.1 11 Sudoeste 24 Oeste 0 1012.5 2.8 42
2019-03-28 21:00:00 15.2 9 Oeste 28 Oeste 0 1011.8 2.2 35
2019-03-28 20:00:00 16.8 10 Oeste 28 Sudoeste 0 1010.7 0.8 29
2019-03-28 19:00:00 22.3 7 Sudoeste 11 Sudoeste 0 1009.7 -1 18
2019-03-28 18:00:00 23.3 7 Sudoeste 17 Oeste 0 1009.6 -2 14
2019-03-28 17:00:00 23.2 8 Oeste 22 Noroeste 0 1009.9 -2.8 14
2019-03-28 16:00:00 22.2 9 Nordeste 22 Norte 0 1010.7 -2.9 15
2019-03-28 15:00:00 20.9 11 Noroeste 28 Nordeste 0 1011.6 -3 18
2019-03-28 14:00:00 20.7 7 Nordeste 21 Nordeste 0 1012.7 -2.6 21
2019-03-28 13:00:00 20 8 Sudeste 26 Este 0 1013.6 -1.7 26
2019-03-28 12:00:00 17.8 8 Nordeste 17 Nordeste 0 1014.6 -0.5 35
2019-03-28 11:00:00 16.5 6 Sudeste 17 Nordeste 0 1015.3 0.9 38
2019-03-28 10:00:00 13.5 13 Este 24 Este 0 1015.3 1.5 42
2019-03-28 09:00:00 11.2 8 Nordeste 15 Sudeste 0 1015.1 1.6 61
2019-03-28 08:00:00 7.2 4 Sudeste 11 Sudeste 0 1014.4 1.2 82
2019-03-28 07:00:00 6.3 6 Norte -- -- -- 1013.8 0.7 88
2019-03-28 06:00:00 6.4 5 Este 11 Este 0 1013.5 0.4 89
2019-03-28 05:00:00 6 7 Este -- -- -- 1013.2 -0.3 88
2019-03-28 04:00:00 6.2 0 Calma -- -- -- 1013.1 -0.5 86
2019-03-28 03:00:00 7.1 2 Sur 8 Sur 0 1013.1 -0.4 82
2019-03-28 02:00:00 8.5 5 Sur 8 Sur 0 1013.5 0.6 79
2019-03-28 01:00:00 9.9 5 Sur 8 Sur 0 1013.6 1.5 72
2019-03-28 00:00:00 11.4 5 Oeste 15 Oeste 0 1013.5 2.8 68
2019-03-27 23:00:00 12.8 9 Oeste 24 Sudoeste 0 1012.9 3.6 61
2019-03-27 22:00:00 14.5 10 Sudoeste -- -- -- 1012.1 3.8 53
2019-03-27 21:00:00 15.7 13 Sudoeste 22 Sudoeste 0 1010.7 -- 42
2019-03-27 20:00:00 17.6 15 Sudoeste 26 Sur 0 1009.3 1.3 34
2019-03-27 19:00:00 21.2 11 Este 24 Nordeste 0 1008.3 -0.1 16
2019-03-27 18:00:00 -- -- -- -- -- -- -- -- --
2019-03-27 17:00:00 22.8 16 Nordeste 35 Nordeste 0 1008 -1.5 15
2019-03-27 16:00:00 22.6 17 Nordeste 39 Este 0 1008.4 -1.6 15
2019-03-27 15:00:00 22.4 19 Este 41 Este 0 1008.8 -1.5 17
2019-03-27 14:00:00 21.4 24 Este 42 Nordeste 0 1009.5 -1 20
2019-03-27 13:00:00 20.2 26 Nordeste 45 Este 0 1010 -0.1 22
2019-03-27 12:00:00 19.2 26 Nordeste 41 Este 0 1010.3 0.2 23
2019-03-27 11:00:00 17.9 29 Nordeste 42 Nordeste 0 1010.5 0.8 25
2019-03-27 10:00:00 16.1 24 Este 33 Nordeste 0 1010.1 1.1 31
2019-03-27 09:00:00 12.3 15 Este 26 Este 0 1010.1 1.6 47
2019-03-27 08:00:00 6.9 3 Este 8 Este 0 1009.7 2.1 85
2019-03-27 07:00:00 6.2 2 Sudeste 5 Noroeste 0 1009 1.8 86
2019-03-27 06:00:00 6.8 3 Sur 13 Sudoeste 0 1008.5 1.5 88
2019-03-27 05:00:00 7.5 3 Oeste 8 Sudoeste 0 1007.6 0.6 87
2019-03-27 04:00:00 8.4 0 Calma 5 Sur 0 1007.2 0.8 85
2019-03-27 03:00:00 9.7 3 Noroeste 9 Norte 0 1007 1.3 82
2019-03-27 02:00:00 10.1 4 Oeste 5 Oeste 0 1007 1.5 80
2019-03-27 01:00:00 10.9 3 Sur 11 Oeste 0 1006.4 1.8 78
2019-03-27 00:00:00 12.6 10 Sur 13 Sur 0 1005.7 2.6 69
2019-03-26 23:00:00 13 5 Norte 11 Nordeste 0 1005.5 3.4 67
2019-03-26 22:00:00 14.7 3 Sur 9 Sur 0 1004.6 3.4 61
2019-03-26 21:00:00 16.9 5 Oeste 17 Oeste 0 1003.1 3.1 51
2019-03-26 20:00:00 18.9 13 Oeste 24 Oeste 0 1002.1 2.5 43
2019-03-26 19:00:00 22 17 Oeste 28 Sudoeste 0 1001.2 1.3 32
2019-03-26 18:00:00 26.5 19 Nordeste 32 Nordeste 0 1000 -0.4 16
2019-03-26 17:00:00 27.7 13 Nordeste 28 Este 0 999.6 -1.6 15
2019-03-26 16:00:00 27.8 18 Nordeste 35 Este 0 999.9 -1.9 14
2019-03-26 15:00:00 27.1 14 Este 30 Nordeste 0 1000.4 -2.1 14
2019-03-26 14:00:00 26.8 17 Este 30 Nordeste 0 1001.2 -1.7 15
2019-03-26 13:00:00 24.7 21 Nordeste -- -- -- 1001.8 -1 18
2019-03-26 12:00:00 22.6 21 Este 32 Este 0 1002.5 -0.1 23
2019-03-26 11:00:00 20 21 Este 30 Este 0 1002.9 0.3 29
2019-03-26 10:00:00 16.9 12 Este 17 Este 0 1002.8 0.5 45
2019-03-26 09:00:00 12.6 9 Este 13 Este 0 1002.6 0.2 64
2019-03-26 08:00:00 9.1 5 Nordeste 9 Este 0 1002.6 0.2 77
2019-03-26 07:00:00 8.2 4 Sudeste 9 Este 0 1002.3 -0.3 83
2019-03-26 06:00:00 7.9 5 Este 9 Este 0 1002.4 -0.7 84
2019-03-26 05:00:00 7.5 4 Norte 9 Sur 0 1002.4 -1.3 86
2019-03-26 04:00:00 7.5 5 Norte -- -- 0 1002.6 -1.3 87
2019-03-26 03:00:00 8.6 3 Sudoeste 5 Sudoeste 0 1003.1 -0.9 82
2019-03-26 02:00:00 9.9 5 Sudoeste 5 Sudoeste 0 1003.7 -0.2 78
2019-03-26 01:00:00 11.2 3 Sudeste -- -- -- 1003.9 0.3 70
2019-03-26 00:00:00 12.5 6 Sudoeste 9 Sur 0 1004 0.9 68
2019-03-25 23:00:00 13.8 4 Oeste -- -- -- 1003.9 1.8 63
2019-03-25 22:00:00 15.9 6 Sudoeste 15 Oeste 0 1003.6 1.6 55
2019-03-25 21:00:00 17.6 10 Oeste 21 Sur 0 1003.1 0.9 50
2019-03-25 20:00:00 20.9 6 Norte 17 Nordeste 0 1002.1 -0.5 32
2019-03-25 19:00:00 24.1 14 Este 24 Este 0 1002 -1.4 24
2019-03-25 18:00:00 25.1 17 Nordeste 35 Este 0 1002.2 -2.3 23
2019-03-25 17:00:00 25.6 19 Nordeste 33 Este 0 1002.6 -3.1 22
2019-03-25 16:00:00 25.7 19 Este 28 Este 0 1003.4 -3.4 23
2019-03-25 15:00:00 25.1 17 Nordeste -- -- -- 1004.5 -- 23
2019-03-25 14:00:00 24.5 14 Nordeste -- -- -- 1005.7 -- 24
2019-03-25 13:00:00 23.2 23 Nordeste -- -- -- 1006.8 -- 27
2019-03-25 12:00:00 -- -- -- -- -- -- -- -- --
2019-03-25 11:00:00 -- -- -- -- -- -- -- -- --
2019-03-25 10:00:00 -- -- -- -- -- -- -- -- --
2019-03-25 09:00:00 -- -- -- -- -- -- -- -- --
2019-03-25 08:00:00 -- -- -- -- -- -- -- -- --
2019-03-25 07:00:00 -- -- -- -- -- -- -- -- --
2019-03-25 06:00:00 -- -- -- -- -- -- -- -- --
2019-03-25 05:00:00 -- -- -- -- -- -- -- -- --
2019-03-25 04:00:00 7.6 3 Noroeste 5 Sudoeste 0 1008.7 -0.8 88
2019-03-25 03:00:00 8.8 6 Sur 9 Sur 0 1008.7 -0.7 85
2019-03-25 02:00:00 10.5 5 Sur 5 Sur 0 1008.9 -0.5 80
2019-03-25 01:00:00 12.2 5 Nordeste 13 Noroeste 0 1009.5 0.1 75
2019-03-25 00:00:00 11.7 10 Sur -- -- 0 1009.4 0.4 80
2019-03-24 23:00:00 11.6 5 Oeste -- -- -- 1009.4 0.9 74
2019-03-24 22:00:00 13.3 10 Sur 15 Sur 0 1009.4 1.3 68
2019-03-24 21:00:00 14.2 5 Oeste 15 Oeste 0 1009 0.9 61
2019-03-24 20:00:00 16.8 5 Sur 9 Sudoeste 0 1008.5 0.6 52
2019-03-24 19:00:00 19.5 7 Este 17 Nordeste 0 1008.1 0.2 39
2019-03-24 18:00:00 20.5 11 Este 30 Este 0 1008.1 -0.4 36
2019-03-24 17:00:00 20.9 21 Nordeste 35 Este 0 1007.9 -1.3 34
2019-03-24 16:00:00 23.4 15 Nordeste 28 Este 0 1007.9 -1.9 30
2019-03-24 15:00:00 23.7 17 Este 32 Este 0 1008.5 -1.6 30
2019-03-24 14:00:00 21.7 17 Este 35 Nordeste 0 1009.2 -1.1 33
2019-03-24 13:00:00 21.7 22 Este 37 Este 0 1009.8 -0.2 33
2019-03-24 12:00:00 20.8 23 Nordeste 32 Este 0 1010.1 0.4 35
2019-03-24 11:00:00 19.1 22 Este 33 Nordeste 0 1010.3 0.7 40
2019-03-24 10:00:00 17 26 Nordeste 35 Este 0 1010 0.8 46
2019-03-24 09:00:00 13.8 13 Este 21 Este 0 1009.7 0.4 60
2019-03-24 08:00:00 11.3 13 Este 17 Este 0 1009.6 0.5 71
2019-03-24 07:00:00 11.6 12 Este 17 Este 0 1009.2 -0.1 69
2019-03-24 06:00:00 11.8 10 Este 17 Este 0 1009.3 -0.4 68
2019-03-24 05:00:00 11 12 Este 17 Este 0 1009.1 -0.7 72
2019-03-24 04:00:00 8.7 6 Este 9 Este 0 1009.3 -0.8 83
2019-03-24 03:00:00 8.6 9 Este -- -- 0 1009.7 -0.5 77
2019-03-24 02:00:00 9.5 2 Sur 15 Este 0 1009.8 -0.6 73
2019-03-24 01:00:00 10.5 13 Este 15 Este 0 1010.1 -0.3 70
2019-03-24 00:00:00 11.5 6 Este 13 Este 0 1010.2 0.1 63
2019-03-23 23:00:00 12.9 9 Este 26 Nordeste 0 1010.4 1.4 57
2019-03-23 22:00:00 14 12 Este 24 Este 0 1010.4 1.9 53
2019-03-23 21:00:00 17.1 10 Este 39 Nordeste 0 1010.1 2.6 43
2019-03-23 20:00:00 18.1 31 Nordeste 48 Nordeste 0 1009 1.6 37
2019-03-23 19:00:00 19.8 31 Este 52 Este 0 1008.5 0.4 31
2019-03-23 18:00:00 21.6 37 Este 54 Nordeste 0 1007.5 -1.5 28
2019-03-23 17:00:00 22.9 28 Nordeste 41 Nordeste 0 1007.4 -2.5 25
2019-03-23 16:00:00 23.2 18 Nordeste 35 Este 0 1008.1 -2.8 25
2019-03-23 15:00:00 22.4 16 Este 35 Este 0 1009 -2.7 27
2019-03-23 14:00:00 22.4 19 Este 41 Nordeste 0 1009.9 -2.3 28
2019-03-23 13:00:00 21.4 23 Nordeste 37 Este 0 1010.9 -2 30
2019-03-23 12:00:00 20 22 Nordeste 39 Este 0 1011.7 -1 34
2019-03-23 11:00:00 18.2 27 Nordeste 37 Nordeste 0 1012.2 -0.5 38
2019-03-23 10:00:00 15.5 23 Este 33 Este 0 1012.9 0.3 49
2019-03-23 09:00:00 12.1 10 Este 21 Este 0 1012.7 0 61
2019-03-23 08:00:00 7.9 18 Este 22 Este 0 1012.7 0 79
2019-03-23 07:00:00 4.8 3 Nordeste 8 Nordeste 0 1012.6 -0.4 89
2019-03-23 06:00:00 4.9 0 Calma 11 Norte 0 1012.7 -0.8 88
2019-03-23 05:00:00 5.6 6 Norte 9 Norte 0 1012.7 -1 87
2019-03-23 04:00:00 5.8 3 Sudeste 8 Sur 0 1013 -0.6 85
2019-03-23 03:00:00 6.8 5 Sur 8 Sudoeste 0 1013.5 -0.3 83
2019-03-23 02:00:00 8.2 3 Norte 5 Norte 0 1013.7 0.2 82
2019-03-23 01:00:00 8.8 3 Sur 5 Sur 0 1013.6 0.7 76
2019-03-23 00:00:00 10.1 0 Calma 13 Oeste 0 1013.8 1.8 70
2019-03-22 23:00:00 11.6 8 Sudoeste 11 Sudoeste 0 1013.5 2.6 63
2019-03-22 22:00:00 12.7 7 Oeste 17 Sudoeste 0 1012.9 2.2 59
2019-03-22 21:00:00 14.1 15 Sudoeste 26 Sudoeste 0 1012 1.4 49
2019-03-22 20:00:00 16.9 5 Oeste 9 Noroeste 0 1010.9 -0.2 33
2019-03-22 19:00:00 21.4 5 Sudeste 13 Este 0 1010.7 -1 20
2019-03-22 18:00:00 22.1 10 Este 18 Este 0 1010.6 -1.6 17
2019-03-22 17:00:00 21.8 12 Nordeste 26 Nordeste 0 1011.1 -1.9 17
2019-03-22 16:00:00 22.1 15 Este 32 Norte 0 1011.7 -2.1 18
2019-03-22 15:00:00 21.1 18 Este 30 Este 0 1012.2 -2.4 18
2019-03-22 14:00:00 19.9 15 Nordeste 30 Nordeste 0 1013 -2.2 21
2019-03-22 13:00:00 18.8 13 Nordeste 26 Este 0 1013.8 -1.7 25
2019-03-22 12:00:00 16.9 17 Este 26 Este 0 1014.6 -0.7 30
2019-03-22 11:00:00 14.6 16 Este 24 Nordeste 0 1015.2 0.2 36
2019-03-22 10:00:00 12 15 Este 22 Este 0 1015.5 0.7 47
2019-03-22 09:00:00 8 9 Nordeste 15 Nordeste 0 1015.3 0.8 73
2019-03-22 08:00:00 3.2 0 Calma 5 Oeste 0 1015 0.6 90
2019-03-22 07:00:00 3 3 Este -- -- 0 1014.8 0.3 89
2019-03-22 06:00:00 3.7 4 Sudeste 8 Este 0 1014.5 -0.1 88
2019-03-22 05:00:00 3.9 5 Sudeste -- -- 0 1014.4 -0.4 87
2019-03-22 04:00:00 4.5 0 Calma 5 Sudoeste 0 1014.5 -0.2 86
2019-03-22 03:00:00 5.4 4 Sur 9 Sudoeste 0 1014.6 -0.2 80
2019-03-22 02:00:00 6.7 3 Oeste -- -- 0 1014.8 0.2 78
2019-03-22 01:00:00 7.9 5 Sur 9 Sur 0 1014.7 0.6 76
2019-03-22 00:00:00 9.2 3 Sur 8 Sur 0 1014.8 1.7 70
2019-03-21 23:00:00 11.1 3 Sudoeste 17 Sudoeste 0 1014.6 2.6 60
2019-03-21 22:00:00 12.1 6 Oeste 15 Oeste 0 1014.1 2.4 53
2019-03-21 21:00:00 13.7 9 Sudoeste 21 Oeste 0 1013.1 1.5 43
2019-03-21 20:00:00 15.2 3 Oeste 13 Este 0 1012 0.1 28
2019-03-21 19:00:00 18.6 12 Este 24 Este 0 1011.7 -0.5 18
2019-03-21 18:00:00 20 14 Este 30 Este 0 1011.6 -1.3 16
2019-03-21 17:00:00 20.4 18 Este 33 Este 0 1011.9 -1.9 16
2019-03-21 16:00:00 20.1 20 Nordeste 33 Nordeste 0 1012.2 -2.4 19
2019-03-21 15:00:00 19.9 26 Este 41 Este 0 1012.9 -2.4 18
2019-03-21 14:00:00 19.9 25 Este 42 Este 0 1013.8 -2 20
2019-03-21 13:00:00 18.4 25 Este 37 Nordeste 0 1014.6 -1.5 23
2019-03-21 12:00:00 17.4 22 Nordeste 32 Nordeste 0 1015.3 -0.8 26
2019-03-21 11:00:00 15.4 20 Nordeste 28 Nordeste 0 1015.8 0.1 35
2019-03-21 10:00:00 12.6 18 Nordeste 24 Nordeste 0 1016.1 1.2 54
2019-03-21 09:00:00 9.5 10 Este 15 Este 0 1016.1 1.7 74
2019-03-21 08:00:00 4.3 2 Sudeste 5 Sudeste 0 1015.7 1.3 91
2019-03-21 07:00:00 4 4 Nordeste -- -- 0 1014.9 0.6 92
2019-03-21 06:00:00 4.7 2 Sur 5 Sur 0 1014.4 -0.3 89
2019-03-21 05:00:00 5 0 Calma 9 Este 0 1014.4 -0.4 89
2019-03-21 04:00:00 5.5 2 Sur -- -- 0 1014.3 -0.6 86
2019-03-21 03:00:00 6.5 2 Sudoeste 5 Oeste 0 1014.7 -0.2 82
2019-03-21 02:00:00 7.5 0 Calma 8 Sur 0 1014.8 0.1 79
2019-03-21 01:00:00 8.3 5 Sudoeste 9 Este 0 1014.9 0.5 76
2019-03-21 00:00:00 10.5 5 Sudoeste 13 Oeste 0 1014.9 1.2 67
2019-03-20 23:00:00 11.6 8 Oeste 15 Oeste 0 1014.7 2.1 61
2019-03-20 22:00:00 12.8 8 Oeste 30 Oeste 0 1014.4 2.2 56
2019-03-20 21:00:00 14.1 12 Oeste 28 Oeste 0 1013.7 2 47
2019-03-20 20:00:00 15.2 12 Sur 17 Sudoeste 0 1012.6 0.8 46
2019-03-20 19:00:00 17.6 9 Sur 15 Este 0 1012.2 0.2 35
2019-03-20 18:00:00 20.8 6 Este 18 Este 0 1011.7 -1 26
2019-03-20 17:00:00 20.9 7 Sudeste 24 Nordeste 0 1011.8 -1.8 25
2019-03-20 16:00:00 20.5 8 Nordeste 22 Este 0 1012 -2.5 26
2019-03-20 15:00:00 20 6 Este 21 Este 0 1012.7 -2.4 28
2019-03-20 14:00:00 19.1 9 Este 21 Este 0 1013.6 -1.7 31
2019-03-20 13:00:00 17.6 11 Este 28 Este 0 1014.5 -0.8 35
2019-03-20 12:00:00 16.5 9 Este 24 Este 0 1015.1 0.1 36
2019-03-20 11:00:00 15.2 14 Este 22 Este 0 1015.3 0.7 37
2019-03-20 10:00:00 13.6 10 Este 15 Este 0 1015.3 1.6 43
2019-03-20 09:00:00 8.9 4 Nordeste 8 Sur 0 1015 1.7 63
2019-03-20 08:00:00 4.1 2 Oeste 8 Norte 0 1014.6 1.6 77
2019-03-20 07:00:00 3.1 4 Sudeste 11 Sur 0 1013.7 0.7 81
2019-03-20 06:00:00 3.4 9 Oeste 13 Oeste 0 1013.3 -0.1 84
2019-03-20 05:00:00 4 0 Calma 8 Sudoeste 0 1013 -0.6 79
2019-03-20 04:00:00 4.1 4 Noroeste 11 Sur 0 1013 -0.5 77
2019-03-20 03:00:00 4.7 5 Sudoeste 8 Sudoeste 0 1013.4 0.1 77
2019-03-20 02:00:00 5.4 0 Calma 9 Norte 0 1013.6 0.6 74
2019-03-20 01:00:00 6.3 5 Sudoeste -- -- 0 1013.5 1 69
2019-03-20 00:00:00 7.7 10 Sur 15 Sur 0 1013.3 1.4 66
2019-03-19 23:00:00 8.4 5 Sudoeste 5 Sudoeste 0 1013 1.7 61
2019-03-19 22:00:00 10.6 4 Sudoeste 8 Sur 0 1012.5 1.8 54
2019-03-19 21:00:00 13.2 3 Sudoeste 13 Norte 0 1011.9 1.9 45
2019-03-19 20:00:00 15.7 11 Norte 26 Nordeste 0 1011.3 1.4 32
2019-03-19 19:00:00 19.2 22 Nordeste 39 Nordeste 0 1010.7 0.6 24
2019-03-19 18:00:00 20.3 29 Nordeste 39 Norte 0 1010 -0.2 23
2019-03-19 17:00:00 21.1 21 Nordeste 45 Nordeste 0 1009.9 -1.2 24
2019-03-19 16:00:00 21.2 20 Norte 50 Nordeste 0 1010.1 -1.9 25
2019-03-19 15:00:00 21.1 14 Nordeste 39 Este 0 1010.2 -2.4 25
2019-03-19 14:00:00 20.7 13 Este 33 Este 0 1011.1 -1.9 23
2019-03-19 13:00:00 19.6 10 Sudeste 30 Este 0 1012 -1.1 25
2019-03-19 12:00:00 18.2 22 Nordeste 30 Este 0 1012.6 -0.2 28
2019-03-19 11:00:00 15.8 22 Este 33 Este 0 1013 0.6 34
2019-03-19 10:00:00 12.8 16 Este 22 Este 0 1013.1 1.1 46
2019-03-19 09:00:00 9.5 9 Este 13 Este 0 1012.8 1.1 63
2019-03-19 08:00:00 5.9 7 Este 9 Este 0 1012.4 0.9 87
2019-03-19 07:00:00 5.2 2 Este 5 Sur 0 1012 0.4 93
2019-03-19 06:00:00 5.7 0 Calma 2 Norte 0 1011.7 -0.2 92
2019-03-19 05:00:00 6.2 0 Calma 4 Sudoeste 0 1011.5 -0.7 90
2019-03-19 04:00:00 7 0 Calma 4 Noroeste 0 1011.6 -0.6 91
2019-03-19 03:00:00 8 3 Sur 8 Sudoeste 0 1011.9 -0.3 83
2019-03-19 02:00:00 8.2 3 Noroeste 5 Noroeste 0 1012.2 0.5 78
2019-03-19 01:00:00 9.6 7 Este 13 Este 0 1012.2 1.1 74
2019-03-19 00:00:00 10.7 10 Sur 13 Sudoeste 0 1012.2 1.9 64